sensor_id;sensor_type;location;lat;lon;timestamp;P1;durP1;ratioP1;P2;durP2;ratioP2
32250;SDS011;41295;48.518;9.206;2022-10-17T00:00:44;7.75;;;4.18;;
32250;SDS011;41295;48.518;9.206;2022-10-17T00:02:47;9.15;;;3.53;;
32250;SDS011;41295;48.518;9.206;2022-10-17T00:04:51;9.82;;;3.67;;
32250;SDS011;41295;48.518;9.206;2022-10-17T00:06:53;5.13;;;3.50;;
32250;SDS011;41295;48.518;9.206;2022-10-17T00:08:56;8.13;;;3.42;;
32250;SDS011;41295;48.518;9.206;2022-10-17T00:10:59;9.32;;;3.28;;
32250;SDS011;41295;48.518;9.206;2022-10-17T00:13:03;7.07;;;3.22;;
32250;SDS011;41295;48.518;9.206;2022-10-17T00:15:06;10.00;;;3.50;;
32250;SDS011;41295;48.518;9.206;2022-10-17T00:17:09;9.25;;;3.30;;
32250;SDS011;41295;48.518;9.206;2022-10-17T00:19:12;15.45;;;3.67;;
32250;SDS011;41295;48.518;9.206;2022-10-17T00:21:17;6.50;;;3.20;;
32250;SDS011;41295;48.518;9.206;2022-10-17T00:23:20;8.27;;;3.58;;
32250;SDS011;41295;48.518;9.206;2022-10-17T00:25:23;8.88;;;3.95;;
32250;SDS011;41295;48.518;9.206;2022-10-17T00:27:25;9.60;;;3.80;;
32250;SDS011;41295;48.518;9.206;2022-10-17T00:29:29;9.18;;;3.42;;
32250;SDS011;41295;48.518;9.206;2022-10-17T00:31:31;9.70;;;3.13;;
32250;SDS011;41295;48.518;9.206;2022-10-17T00:33:35;5.45;;;3.30;;
32250;SDS011;41295;48.518;9.206;2022-10-17T00:35:39;4.93;;;2.80;;
32250;SDS011;41295;48.518;9.206;2022-10-17T00:37:43;4.93;;;3.03;;
32250;SDS011;41295;48.518;9.206;2022-10-17T00:39:45;7.03;;;3.30;;
32250;SDS011;41295;48.518;9.206;2022-10-17T00:41:48;7.63;;;3.35;;
32250;SDS011;41295;48.518;9.206;2022-10-17T00:43:52;6.68;;;3.20;;
32250;SDS011;41295;48.518;9.206;2022-10-17T00:45:56;10.05;;;3.05;;
32250;SDS011;41295;48.518;9.206;2022-10-17T00:47:59;10.52;;;3.20;;
32250;SDS011;41295;48.518;9.206;2022-10-17T00:50:06;8.30;;;3.20;;
32250;SDS011;41295;48.518;9.206;2022-10-17T00:52:10;5.90;;;3.58;;
32250;SDS011;41295;48.518;9.206;2022-10-17T00:54:18;7.78;;;3.60;;
32250;SDS011;41295;48.518;9.206;2022-10-17T00:56:23;5.43;;;3.03;;
32250;SDS011;41295;48.518;9.206;2022-10-17T00:58:26;8.65;;;2.97;;
32250;SDS011;41295;48.518;9.206;2022-10-17T01:00:29;8.13;;;2.97;;
32250;SDS011;41295;48.518;9.206;2022-10-17T01:02:32;7.68;;;2.90;;
32250;SDS011;41295;48.518;9.206;2022-10-17T01:04:34;9.88;;;3.05;;
32250;SDS011;41295;48.518;9.206;2022-10-17T01:06:38;12.32;;;3.75;;
32250;SDS011;41295;48.518;9.206;2022-10-17T01:08:40;6.32;;;3.65;;
32250;SDS011;41295;48.518;9.206;2022-10-17T01:10:50;7.68;;;3.22;;
32250;SDS011;41295;48.518;9.206;2022-10-17T01:13:01;10.20;;;3.35;;
32250;SDS011;41295;48.518;9.206;2022-10-17T01:15:13;9.35;;;3.13;;
32250;SDS011;41295;48.518;9.206;2022-10-17T01:17:26;12.95;;;3.15;;
32250;SDS011;41295;48.518;9.206;2022-10-17T01:19:45;15.52;;;3.85;;
32250;SDS011;41295;48.518;9.206;2022-10-17T01:22:01;8.18;;;3.22;;
32250;SDS011;41295;48.518;9.206;2022-10-17T01:24:31;7.00;;;3.50;;
32250;SDS011;41295;48.518;9.206;2022-10-17T01:26:49;9.63;;;3.45;;
32250;SDS011;41295;48.518;9.206;2022-10-17T01:31:32;14.98;;;3.58;;
32250;SDS011;41295;48.518;9.206;2022-10-17T01:33:44;9.57;;;3.45;;
32250;SDS011;41295;48.518;9.206;2022-10-17T01:35:54;9.13;;;3.28;;
32250;SDS011;41295;48.518;9.206;2022-10-17T01:38:06;7.80;;;3.63;;
32250;SDS011;41295;48.518;9.206;2022-10-17T01:40:13;4.00;;;2.42;;
32250;SDS011;41295;48.518;9.206;2022-10-17T01:42:22;6.70;;;3.38;;
32250;SDS011;41295;48.518;9.206;2022-10-17T01:44:31;8.82;;;3.20;;
32250;SDS011;41295;48.518;9.206;2022-10-17T01:46:40;9.48;;;3.60;;
32250;SDS011;41295;48.518;9.206;2022-10-17T01:48:46;12.45;;;3.38;;
32250;SDS011;41295;48.518;9.206;2022-10-17T01:50:49;9.75;;;3.33;;
32250;SDS011;41295;48.518;9.206;2022-10-17T01:52:55;8.82;;;4.10;;
32250;SDS011;41295;48.518;9.206;2022-10-17T01:55:05;4.45;;;2.80;;
32250;SDS011;41295;48.518;9.206;2022-10-17T01:57:14;10.85;;;3.10;;
32250;SDS011;41295;48.518;9.206;2022-10-17T01:59:22;10.77;;;3.45;;
32250;SDS011;41295;48.518;9.206;2022-10-17T02:01:28;9.85;;;3.35;;
32250;SDS011;41295;48.518;9.206;2022-10-17T02:03:34;7.25;;;3.60;;
32250;SDS011;41295;48.518;9.206;2022-10-17T02:05:38;11.25;;;3.28;;
32250;SDS011;41295;48.518;9.206;2022-10-17T02:07:42;12.13;;;3.70;;
32250;SDS011;41295;48.518;9.206;2022-10-17T02:09:45;10.32;;;3.55;;
32250;SDS011;41295;48.518;9.206;2022-10-17T02:11:58;10.35;;;3.35;;
32250;SDS011;41295;48.518;9.206;2022-10-17T02:14:17;10.15;;;3.95;;
32250;SDS011;41295;48.518;9.206;2022-10-17T02:16:33;11.38;;;3.22;;
32250;SDS011;41295;48.518;9.206;2022-10-17T02:21:10;7.22;;;3.47;;
32250;SDS011;41295;48.518;9.206;2022-10-17T02:23:19;11.52;;;3.25;;
32250;SDS011;41295;48.518;9.206;2022-10-17T02:25:32;14.20;;;3.73;;
32250;SDS011;41295;48.518;9.206;2022-10-17T02:27:41;8.10;;;3.50;;
32250;SDS011;41295;48.518;9.206;2022-10-17T02:29:52;8.38;;;3.00;;
32250;SDS011;41295;48.518;9.206;2022-10-17T02:31:58;5.03;;;3.15;;
32250;SDS011;41295;48.518;9.206;2022-10-17T02:34:07;13.45;;;3.85;;
32250;SDS011;41295;48.518;9.206;2022-10-17T02:36:14;17.90;;;3.58;;
32250;SDS011;41295;48.518;9.206;2022-10-17T02:38:21;7.05;;;2.88;;
32250;SDS011;41295;48.518;9.206;2022-10-17T02:40:25;9.35;;;3.50;;
32250;SDS011;41295;48.518;9.206;2022-10-17T02:42:31;10.80;;;3.70;;
32250;SDS011;41295;48.518;9.206;2022-10-17T02:44:35;11.00;;;3.35;;
32250;SDS011;41295;48.518;9.206;2022-10-17T02:46:40;9.35;;;3.70;;
32250;SDS011;41295;48.518;9.206;2022-10-17T02:48:46;7.90;;;3.67;;
32250;SDS011;41295;48.518;9.206;2022-10-17T02:50:55;9.25;;;3.70;;
32250;SDS011;41295;48.518;9.206;2022-10-17T02:53:03;9.85;;;3.22;;
32250;SDS011;41295;48.518;9.206;2022-10-17T02:55:14;16.50;;;4.00;;
32250;SDS011;41295;48.518;9.206;2022-10-17T02:57:21;7.80;;;3.70;;
32250;SDS011;41295;48.518;9.206;2022-10-17T02:59:28;7.00;;;3.35;;
32250;SDS011;41295;48.518;9.206;2022-10-17T03:01:37;12.10;;;3.22;;
32250;SDS011;41295;48.518;9.206;2022-10-17T03:03:40;6.78;;;3.15;;
32250;SDS011;41295;48.518;9.206;2022-10-17T03:05:43;16.35;;;3.20;;
32250;SDS011;41295;48.518;9.206;2022-10-17T03:07:47;13.63;;;4.43;;
32250;SDS011;41295;48.518;9.206;2022-10-17T03:09:50;13.80;;;3.95;;
32250;SDS011;41295;48.518;9.206;2022-10-17T03:11:52;8.65;;;3.85;;
32250;SDS011;41295;48.518;9.206;2022-10-17T03:13:55;6.53;;;3.50;;
32250;SDS011;41295;48.518;9.206;2022-10-17T03:15:58;13.75;;;3.72;;
32250;SDS011;41295;48.518;9.206;2022-10-17T03:18:00;8.70;;;3.88;;
32250;SDS011;41295;48.518;9.206;2022-10-17T03:20:03;6.43;;;3.75;;
32250;SDS011;41295;48.518;9.206;2022-10-17T03:22:07;10.27;;;3.70;;
32250;SDS011;41295;48.518;9.206;2022-10-17T03:24:11;8.65;;;3.63;;
32250;SDS011;41295;48.518;9.206;2022-10-17T03:26:13;17.42;;;3.72;;
32250;SDS011;41295;48.518;9.206;2022-10-17T03:28:16;10.63;;;3.50;;
32250;SDS011;41295;48.518;9.206;2022-10-17T03:30:19;12.13;;;3.50;;
32250;SDS011;41295;48.518;9.206;2022-10-17T03:32:22;8.07;;;3.75;;
32250;SDS011;41295;48.518;9.206;2022-10-17T03:34:24;11.57;;;3.67;;
32250;SDS011;41295;48.518;9.206;2022-10-17T03:36:27;9.68;;;4.03;;
32250;SDS011;41295;48.518;9.206;2022-10-17T03:38:29;14.07;;;4.30;;
32250;SDS011;41295;48.518;9.206;2022-10-17T03:40:34;9.52;;;4.15;;
32250;SDS011;41295;48.518;9.206;2022-10-17T03:42:36;18.70;;;4.78;;
32250;SDS011;41295;48.518;9.206;2022-10-17T03:44:39;13.80;;;4.28;;
32250;SDS011;41295;48.518;9.206;2022-10-17T03:46:42;9.23;;;4.22;;
32250;SDS011;41295;48.518;9.206;2022-10-17T03:48:44;8.23;;;4.32;;
32250;SDS011;41295;48.518;9.206;2022-10-17T03:50:47;20.38;;;4.10;;
32250;SDS011;41295;48.518;9.206;2022-10-17T03:52:50;9.32;;;3.97;;
32250;SDS011;41295;48.518;9.206;2022-10-17T03:54:53;7.10;;;3.60;;
32250;SDS011;41295;48.518;9.206;2022-10-17T03:56:56;14.82;;;4.28;;
32250;SDS011;41295;48.518;9.206;2022-10-17T03:58:59;14.65;;;3.72;;
32250;SDS011;41295;48.518;9.206;2022-10-17T04:01:02;8.02;;;3.45;;
32250;SDS011;41295;48.518;9.206;2022-10-17T04:03:05;9.00;;;3.75;;
32250;SDS011;41295;48.518;9.206;2022-10-17T04:05:08;7.65;;;3.55;;
32250;SDS011;41295;48.518;9.206;2022-10-17T04:07:10;10.82;;;3.80;;
32250;SDS011;41295;48.518;9.206;2022-10-17T04:09:13;10.93;;;3.90;;
32250;SDS011;41295;48.518;9.206;2022-10-17T04:11:17;6.20;;;3.55;;
32250;SDS011;41295;48.518;9.206;2022-10-17T04:13:22;11.73;;;3.17;;
32250;SDS011;41295;48.518;9.206;2022-10-17T04:15:25;11.73;;;3.75;;
32250;SDS011;41295;48.518;9.206;2022-10-17T04:17:28;16.17;;;4.03;;
32250;SDS011;41295;48.518;9.206;2022-10-17T04:19:38;13.95;;;4.03;;
32250;SDS011;41295;48.518;9.206;2022-10-17T04:21:41;14.02;;;3.85;;
32250;SDS011;41295;48.518;9.206;2022-10-17T04:23:45;7.90;;;3.45;;
32250;SDS011;41295;48.518;9.206;2022-10-17T04:25:47;7.80;;;4.47;;
32250;SDS011;41295;48.518;9.206;2022-10-17T04:27:50;5.35;;;3.40;;
32250;SDS011;41295;48.518;9.206;2022-10-17T04:29:54;17.10;;;4.22;;
32250;SDS011;41295;48.518;9.206;2022-10-17T04:31:56;10.93;;;3.65;;
32250;SDS011;41295;48.518;9.206;2022-10-17T04:33:59;10.43;;;4.88;;
32250;SDS011;41295;48.518;9.206;2022-10-17T04:36:03;14.07;;;3.92;;
32250;SDS011;41295;48.518;9.206;2022-10-17T04:38:07;17.35;;;3.58;;
32250;SDS011;41295;48.518;9.206;2022-10-17T04:40:10;10.68;;;3.80;;
32250;SDS011;41295;48.518;9.206;2022-10-17T04:42:12;13.93;;;3.83;;
32250;SDS011;41295;48.518;9.206;2022-10-17T04:44:15;10.07;;;4.15;;
32250;SDS011;41295;48.518;9.206;2022-10-17T04:46:19;13.38;;;4.32;;
32250;SDS011;41295;48.518;9.206;2022-10-17T04:48:22;7.93;;;3.55;;
32250;SDS011;41295;48.518;9.206;2022-10-17T04:50:24;11.40;;;4.03;;
32250;SDS011;41295;48.518;9.206;2022-10-17T04:52:27;14.77;;;3.95;;
32250;SDS011;41295;48.518;9.206;2022-10-17T04:54:30;10.95;;;3.60;;
32250;SDS011;41295;48.518;9.206;2022-10-17T04:56:33;10.18;;;3.75;;
32250;SDS011;41295;48.518;9.206;2022-10-17T04:58:36;7.93;;;4.05;;
32250;SDS011;41295;48.518;9.206;2022-10-17T05:00:39;11.10;;;4.18;;
32250;SDS011;41295;48.518;9.206;2022-10-17T05:02:43;7.75;;;3.53;;
32250;SDS011;41295;48.518;9.206;2022-10-17T05:04:46;10.27;;;3.80;;
32250;SDS011;41295;48.518;9.206;2022-10-17T05:06:48;11.13;;;4.10;;
32250;SDS011;41295;48.518;9.206;2022-10-17T05:08:51;11.68;;;3.35;;
32250;SDS011;41295;48.518;9.206;2022-10-17T05:10:53;9.38;;;3.47;;
32250;SDS011;41295;48.518;9.206;2022-10-17T05:12:56;6.63;;;3.42;;
32250;SDS011;41295;48.518;9.206;2022-10-17T05:14:59;5.40;;;3.45;;
32250;SDS011;41295;48.518;9.206;2022-10-17T05:17:01;5.65;;;3.78;;
32250;SDS011;41295;48.518;9.206;2022-10-17T05:19:23;9.18;;;3.20;;
32250;SDS011;41295;48.518;9.206;2022-10-17T05:21:27;10.00;;;3.28;;
32250;SDS011;41295;48.518;9.206;2022-10-17T05:23:36;19.58;;;4.10;;
32250;SDS011;41295;48.518;9.206;2022-10-17T05:25:38;5.35;;;3.67;;
32250;SDS011;41295;48.518;9.206;2022-10-17T05:27:41;10.90;;;3.63;;
32250;SDS011;41295;48.518;9.206;2022-10-17T05:29:44;10.20;;;4.15;;
32250;SDS011;41295;48.518;9.206;2022-10-17T05:31:46;11.20;;;4.05;;
32250;SDS011;41295;48.518;9.206;2022-10-17T05:33:49;13.65;;;3.80;;
32250;SDS011;41295;48.518;9.206;2022-10-17T05:35:53;11.60;;;4.25;;
32250;SDS011;41295;48.518;9.206;2022-10-17T05:37:56;12.40;;;5.05;;
32250;SDS011;41295;48.518;9.206;2022-10-17T05:40:00;13.35;;;4.55;;
32250;SDS011;41295;48.518;9.206;2022-10-17T05:42:02;12.20;;;4.50;;
32250;SDS011;41295;48.518;9.206;2022-10-17T05:44:05;16.80;;;4.78;;
32250;SDS011;41295;48.518;9.206;2022-10-17T05:46:08;12.77;;;6.20;;
32250;SDS011;41295;48.518;9.206;2022-10-17T05:48:11;14.55;;;5.25;;
32250;SDS011;41295;48.518;9.206;2022-10-17T05:50:13;11.80;;;5.30;;
32250;SDS011;41295;48.518;9.206;2022-10-17T05:52:17;21.38;;;5.70;;
32250;SDS011;41295;48.518;9.206;2022-10-17T05:54:20;10.30;;;5.30;;
32250;SDS011;41295;48.518;9.206;2022-10-17T05:56:22;10.70;;;4.75;;
32250;SDS011;41295;48.518;9.206;2022-10-17T05:58:25;15.82;;;4.78;;
32250;SDS011;41295;48.518;9.206;2022-10-17T06:00:49;19.60;;;4.75;;
32250;SDS011;41295;48.518;9.206;2022-10-17T06:02:51;16.60;;;5.80;;
32250;SDS011;41295;48.518;9.206;2022-10-17T06:04:54;13.38;;;4.68;;
32250;SDS011;41295;48.518;9.206;2022-10-17T06:06:56;11.88;;;5.22;;
32250;SDS011;41295;48.518;9.206;2022-10-17T06:09:00;19.08;;;5.45;;
32250;SDS011;41295;48.518;9.206;2022-10-17T06:11:03;17.83;;;5.78;;
32250;SDS011;41295;48.518;9.206;2022-10-17T06:13:10;13.98;;;5.57;;
32250;SDS011;41295;48.518;9.206;2022-10-17T06:15:13;13.15;;;5.55;;
32250;SDS011;41295;48.518;9.206;2022-10-17T06:17:15;10.25;;;4.63;;
32250;SDS011;41295;48.518;9.206;2022-10-17T06:19:18;14.30;;;4.40;;
32250;SDS011;41295;48.518;9.206;2022-10-17T06:21:21;9.27;;;4.68;;
32250;SDS011;41295;48.518;9.206;2022-10-17T06:23:25;10.73;;;4.90;;
32250;SDS011;41295;48.518;9.206;2022-10-17T06:25:30;9.32;;;4.72;;
32250;SDS011;41295;48.518;9.206;2022-10-17T06:27:34;12.90;;;4.65;;
32250;SDS011;41295;48.518;9.206;2022-10-17T06:29:36;14.57;;;5.53;;
32250;SDS011;41295;48.518;9.206;2022-10-17T06:31:39;10.60;;;4.80;;
32250;SDS011;41295;48.518;9.206;2022-10-17T06:33:41;10.07;;;5.15;;
32250;SDS011;41295;48.518;9.206;2022-10-17T06:35:49;12.98;;;5.60;;
32250;SDS011;41295;48.518;9.206;2022-10-17T06:37:52;12.25;;;4.93;;
32250;SDS011;41295;48.518;9.206;2022-10-17T06:39:54;14.25;;;6.00;;
32250;SDS011;41295;48.518;9.206;2022-10-17T06:41:59;13.55;;;6.15;;
32250;SDS011;41295;48.518;9.206;2022-10-17T06:44:02;16.83;;;5.32;;
32250;SDS011;41295;48.518;9.206;2022-10-17T06:46:11;20.58;;;6.38;;
32250;SDS011;41295;48.518;9.206;2022-10-17T06:48:14;12.48;;;4.75;;
32250;SDS011;41295;48.518;9.206;2022-10-17T06:50:17;9.02;;;3.83;;
32250;SDS011;41295;48.518;9.206;2022-10-17T06:52:19;6.65;;;3.90;;
32250;SDS011;41295;48.518;9.206;2022-10-17T06:54:22;9.25;;;4.40;;
32250;SDS011;41295;48.518;9.206;2022-10-17T06:56:25;9.00;;;3.65;;
32250;SDS011;41295;48.518;9.206;2022-10-17T06:58:29;12.20;;;3.92;;
32250;SDS011;41295;48.518;9.206;2022-10-17T07:00:33;9.93;;;4.03;;
32250;SDS011;41295;48.518;9.206;2022-10-17T07:02:36;10.60;;;3.58;;
32250;SDS011;41295;48.518;9.206;2022-10-17T07:04:38;6.60;;;3.88;;
32250;SDS011;41295;48.518;9.206;2022-10-17T07:06:41;8.68;;;3.50;;
32250;SDS011;41295;48.518;9.206;2022-10-17T07:08:44;10.07;;;3.65;;
32250;SDS011;41295;48.518;9.206;2022-10-17T07:10:47;10.15;;;3.58;;
32250;SDS011;41295;48.518;9.206;2022-10-17T07:12:51;12.60;;;3.38;;
32250;SDS011;41295;48.518;9.206;2022-10-17T07:14:55;14.02;;;3.95;;
32250;SDS011;41295;48.518;9.206;2022-10-17T07:16:57;6.45;;;3.88;;
32250;SDS011;41295;48.518;9.206;2022-10-17T07:19:00;11.55;;;3.40;;
32250;SDS011;41295;48.518;9.206;2022-10-17T07:21:03;10.75;;;3.80;;
32250;SDS011;41295;48.518;9.206;2022-10-17T07:23:06;12.95;;;3.60;;
32250;SDS011;41295;48.518;9.206;2022-10-17T07:25:08;14.93;;;3.50;;
32250;SDS011;41295;48.518;9.206;2022-10-17T07:27:11;9.45;;;3.28;;
32250;SDS011;41295;48.518;9.206;2022-10-17T07:29:14;10.52;;;3.22;;
32250;SDS011;41295;48.518;9.206;2022-10-17T07:31:18;13.43;;;3.65;;
32250;SDS011;41295;48.518;9.206;2022-10-17T07:33:22;9.82;;;3.63;;
32250;SDS011;41295;48.518;9.206;2022-10-17T07:35:25;5.45;;;3.22;;
32250;SDS011;41295;48.518;9.206;2022-10-17T07:37:28;7.70;;;3.83;;
32250;SDS011;41295;48.518;9.206;2022-10-17T07:39:31;17.63;;;3.78;;
32250;SDS011;41295;48.518;9.206;2022-10-17T07:41:35;11.88;;;3.33;;
32250;SDS011;41295;48.518;9.206;2022-10-17T07:43:38;9.73;;;3.35;;
32250;SDS011;41295;48.518;9.206;2022-10-17T07:45:43;10.98;;;3.75;;
32250;SDS011;41295;48.518;9.206;2022-10-17T07:47:46;5.97;;;2.97;;
32250;SDS011;41295;48.518;9.206;2022-10-17T07:49:49;9.35;;;3.15;;
32250;SDS011;41295;48.518;9.206;2022-10-17T07:51:52;14.65;;;3.67;;
32250;SDS011;41295;48.518;9.206;2022-10-17T07:53:54;13.25;;;3.50;;
32250;SDS011;41295;48.518;9.206;2022-10-17T07:55:57;11.40;;;3.90;;
32250;SDS011;41295;48.518;9.206;2022-10-17T07:57:59;15.98;;;3.30;;
32250;SDS011;41295;48.518;9.206;2022-10-17T08:00:02;12.38;;;3.25;;
32250;SDS011;41295;48.518;9.206;2022-10-17T08:02:05;7.82;;;2.95;;
32250;SDS011;41295;48.518;9.206;2022-10-17T08:04:10;7.65;;;3.15;;
32250;SDS011;41295;48.518;9.206;2022-10-17T08:06:12;6.93;;;3.75;;
32250;SDS011;41295;48.518;9.206;2022-10-17T08:08:15;10.98;;;4.03;;
32250;SDS011;41295;48.518;9.206;2022-10-17T08:10:18;5.88;;;3.38;;
32250;SDS011;41295;48.518;9.206;2022-10-17T08:12:21;10.13;;;3.45;;
32250;SDS011;41295;48.518;9.206;2022-10-17T08:14:26;19.33;;;8.32;;
32250;SDS011;41295;48.518;9.206;2022-10-17T08:16:28;13.27;;;4.80;;
32250;SDS011;41295;48.518;9.206;2022-10-17T08:18:31;9.43;;;3.22;;
32250;SDS011;41295;48.518;9.206;2022-10-17T08:20:35;10.93;;;3.35;;
32250;SDS011;41295;48.518;9.206;2022-10-17T08:22:38;11.88;;;4.00;;
32250;SDS011;41295;48.518;9.206;2022-10-17T08:24:40;11.23;;;3.38;;
32250;SDS011;41295;48.518;9.206;2022-10-17T08:26:44;8.27;;;3.40;;
32250;SDS011;41295;48.518;9.206;2022-10-17T08:28:51;10.68;;;3.83;;
32250;SDS011;41295;48.518;9.206;2022-10-17T08:31:00;4.55;;;2.85;;
32250;SDS011;41295;48.518;9.206;2022-10-17T08:33:03;9.43;;;3.40;;
32250;SDS011;41295;48.518;9.206;2022-10-17T08:35:06;5.80;;;2.88;;
32250;SDS011;41295;48.518;9.206;2022-10-17T08:37:11;8.65;;;3.15;;
32250;SDS011;41295;48.518;9.206;2022-10-17T08:39:14;10.80;;;4.00;;
32250;SDS011;41295;48.518;9.206;2022-10-17T08:41:20;7.70;;;2.92;;
32250;SDS011;41295;48.518;9.206;2022-10-17T08:43:39;7.57;;;3.15;;
32250;SDS011;41295;48.518;9.206;2022-10-17T08:45:50;12.70;;;3.10;;
32250;SDS011;41295;48.518;9.206;2022-10-17T08:47:57;7.00;;;3.08;;
32250;SDS011;41295;48.518;9.206;2022-10-17T08:50:01;8.07;;;2.97;;
32250;SDS011;41295;48.518;9.206;2022-10-17T08:52:06;5.97;;;3.03;;
32250;SDS011;41295;48.518;9.206;2022-10-17T08:54:17;9.55;;;3.28;;
32250;SDS011;41295;48.518;9.206;2022-10-17T08:56:24;9.32;;;3.25;;
32250;SDS011;41295;48.518;9.206;2022-10-17T08:58:48;12.85;;;3.40;;
32250;SDS011;41295;48.518;9.206;2022-10-17T09:00:54;7.18;;;3.38;;
32250;SDS011;41295;48.518;9.206;2022-10-17T09:03:07;7.78;;;3.63;;
32250;SDS011;41295;48.518;9.206;2022-10-17T09:05:26;9.65;;;2.97;;
32250;SDS011;41295;48.518;9.206;2022-10-17T09:07:39;7.90;;;3.17;;
32250;SDS011;41295;48.518;9.206;2022-10-17T09:09:53;11.27;;;3.50;;
32250;SDS011;41295;48.518;9.206;2022-10-17T09:12:15;12.55;;;3.47;;
32250;SDS011;41295;48.518;9.206;2022-10-17T09:17:03;7.93;;;2.80;;
32250;SDS011;41295;48.518;9.206;2022-10-17T09:19:15;7.18;;;3.22;;
32250;SDS011;41295;48.518;9.206;2022-10-17T09:21:23;8.40;;;2.67;;
32250;SDS011;41295;48.518;9.206;2022-10-17T09:23:42;14.50;;;3.28;;
32250;SDS011;41295;48.518;9.206;2022-10-17T09:25:49;10.18;;;3.33;;
32250;SDS011;41295;48.518;9.206;2022-10-17T09:27:58;9.45;;;3.67;;
32250;SDS011;41295;48.518;9.206;2022-10-17T09:30:22;11.40;;;3.33;;
32250;SDS011;41295;48.518;9.206;2022-10-17T09:32:46;6.07;;;3.67;;
32250;SDS011;41295;48.518;9.206;2022-10-17T09:34:50;7.85;;;3.95;;
32250;SDS011;41295;48.518;9.206;2022-10-17T09:36:53;6.57;;;4.28;;
32250;SDS011;41295;48.518;9.206;2022-10-17T09:38:59;14.98;;;4.60;;
32250;SDS011;41295;48.518;9.206;2022-10-17T09:41:03;11.95;;;4.28;;
32250;SDS011;41295;48.518;9.206;2022-10-17T09:43:34;7.38;;;3.40;;
32250;SDS011;41295;48.518;9.206;2022-10-17T09:45:39;6.72;;;3.40;;
32250;SDS011;41295;48.518;9.206;2022-10-17T09:47:49;9.73;;;3.75;;
32250;SDS011;41295;48.518;9.206;2022-10-17T09:50:01;14.65;;;4.30;;
32250;SDS011;41295;48.518;9.206;2022-10-17T09:52:05;5.25;;;3.05;;
32250;SDS011;41295;48.518;9.206;2022-10-17T09:54:16;11.93;;;3.85;;
32250;SDS011;41295;48.518;9.206;2022-10-17T09:56:23;9.27;;;4.30;;
32250;SDS011;41295;48.518;9.206;2022-10-17T09:58:38;8.82;;;3.80;;
32250;SDS011;41295;48.518;9.206;2022-10-17T10:00:43;13.93;;;5.00;;
32250;SDS011;41295;48.518;9.206;2022-10-17T10:02:47;9.15;;;2.90;;
32250;SDS011;41295;48.518;9.206;2022-10-17T10:04:54;9.25;;;3.50;;
32250;SDS011;41295;48.518;9.206;2022-10-17T10:07:08;8.88;;;2.60;;
32250;SDS011;41295;48.518;9.206;2022-10-17T10:09:19;6.30;;;2.80;;
32250;SDS011;41295;48.518;9.206;2022-10-17T10:11:42;7.75;;;3.00;;
32250;SDS011;41295;48.518;9.206;2022-10-17T10:13:47;12.70;;;3.55;;
32250;SDS011;41295;48.518;9.206;2022-10-17T10:15:50;4.68;;;2.63;;
32250;SDS011;41295;48.518;9.206;2022-10-17T10:17:53;6.80;;;3.20;;
32250;SDS011;41295;48.518;9.206;2022-10-17T10:19:55;9.07;;;3.00;;
32250;SDS011;41295;48.518;9.206;2022-10-17T10:21:58;8.32;;;2.95;;
32250;SDS011;41295;48.518;9.206;2022-10-17T10:24:04;7.60;;;2.90;;
32250;SDS011;41295;48.518;9.206;2022-10-17T10:26:24;7.72;;;2.92;;
32250;SDS011;41295;48.518;9.206;2022-10-17T10:28:29;9.55;;;2.97;;
32250;SDS011;41295;48.518;9.206;2022-10-17T10:30:33;8.50;;;3.30;;
32250;SDS011;41295;48.518;9.206;2022-10-17T10:32:40;8.88;;;2.97;;
32250;SDS011;41295;48.518;9.206;2022-10-17T10:34:49;7.70;;;2.92;;
32250;SDS011;41295;48.518;9.206;2022-10-17T10:36:57;4.50;;;2.92;;
32250;SDS011;41295;48.518;9.206;2022-10-17T10:39:02;6.57;;;2.80;;
32250;SDS011;41295;48.518;9.206;2022-10-17T10:41:06;4.97;;;3.03;;
32250;SDS011;41295;48.518;9.206;2022-10-17T10:43:19;5.63;;;2.47;;
32250;SDS011;41295;48.518;9.206;2022-10-17T10:45:25;5.82;;;2.85;;
32250;SDS011;41295;48.518;9.206;2022-10-17T10:47:48;6.88;;;3.40;;
32250;SDS011;41295;48.518;9.206;2022-10-17T10:50:07;9.07;;;3.20;;
32250;SDS011;41295;48.518;9.206;2022-10-17T10:52:21;11.48;;;3.38;;
32250;SDS011;41295;48.518;9.206;2022-10-17T10:54:45;6.60;;;2.47;;
32250;SDS011;41295;48.518;9.206;2022-10-17T10:56:55;4.15;;;2.97;;
32250;SDS011;41295;48.518;9.206;2022-10-17T10:59:03;10.02;;;2.70;;
32250;SDS011;41295;48.518;9.206;2022-10-17T11:01:13;9.35;;;2.90;;
32250;SDS011;41295;48.518;9.206;2022-10-17T11:03:25;9.05;;;3.13;;
32250;SDS011;41295;48.518;9.206;2022-10-17T11:05:35;6.72;;;3.25;;
32250;SDS011;41295;48.518;9.206;2022-10-17T11:07:44;13.65;;;2.97;;
32250;SDS011;41295;48.518;9.206;2022-10-17T11:09:53;12.35;;;3.33;;
32250;SDS011;41295;48.518;9.206;2022-10-17T11:12:01;7.68;;;2.40;;
32250;SDS011;41295;48.518;9.206;2022-10-17T11:14:12;5.03;;;2.70;;
32250;SDS011;41295;48.518;9.206;2022-10-17T11:16:26;9.35;;;2.80;;
32250;SDS011;41295;48.518;9.206;2022-10-17T11:18:33;6.45;;;2.65;;
32250;SDS011;41295;48.518;9.206;2022-10-17T11:20:46;4.78;;;2.47;;
32250;SDS011;41295;48.518;9.206;2022-10-17T11:22:54;7.25;;;2.28;;
32250;SDS011;41295;48.518;9.206;2022-10-17T11:25:03;9.07;;;2.67;;
32250;SDS011;41295;48.518;9.206;2022-10-17T11:27:16;4.03;;;2.15;;
32250;SDS011;41295;48.518;9.206;2022-10-17T11:29:20;3.47;;;2.10;;
32250;SDS011;41295;48.518;9.206;2022-10-17T11:31:26;12.10;;;2.28;;
32250;SDS011;41295;48.518;9.206;2022-10-17T11:33:33;8.30;;;2.28;;
32250;SDS011;41295;48.518;9.206;2022-10-17T11:35:44;11.40;;;2.40;;
32250;SDS011;41295;48.518;9.206;2022-10-17T11:37:52;3.33;;;2.03;;
32250;SDS011;41295;48.518;9.206;2022-10-17T11:39:59;5.85;;;2.22;;
32250;SDS011;41295;48.518;9.206;2022-10-17T11:42:08;4.78;;;2.15;;
32250;SDS011;41295;48.518;9.206;2022-10-17T11:44:18;5.65;;;2.17;;
32250;SDS011;41295;48.518;9.206;2022-10-17T11:46:26;4.72;;;1.90;;
32250;SDS011;41295;48.518;9.206;2022-10-17T11:48:30;4.45;;;2.55;;
32250;SDS011;41295;48.518;9.206;2022-10-17T11:50:41;12.00;;;2.60;;
32250;SDS011;41295;48.518;9.206;2022-10-17T11:53:08;8.43;;;2.70;;
32250;SDS011;41295;48.518;9.206;2022-10-17T11:55:16;11.02;;;3.08;;
32250;SDS011;41295;48.518;9.206;2022-10-17T11:57:31;4.97;;;2.63;;
32250;SDS011;41295;48.518;9.206;2022-10-17T11:59:55;12.02;;;2.92;;
32250;SDS011;41295;48.518;9.206;2022-10-17T12:02:05;7.93;;;2.90;;
32250;SDS011;41295;48.518;9.206;2022-10-17T12:04:18;8.43;;;3.03;;
32250;SDS011;41295;48.518;9.206;2022-10-17T12:06:34;7.00;;;3.10;;
32250;SDS011;41295;48.518;9.206;2022-10-17T12:08:47;4.78;;;3.03;;
32250;SDS011;41295;48.518;9.206;2022-10-17T12:10:56;6.95;;;2.83;;
32250;SDS011;41295;48.518;9.206;2022-10-17T12:15:43;7.63;;;2.40;;
32250;SDS011;41295;48.518;9.206;2022-10-17T12:17:48;6.10;;;2.50;;
32250;SDS011;41295;48.518;9.206;2022-10-17T12:24:35;2.22;;;1.88;;
32250;SDS011;41295;48.518;9.206;2022-10-17T12:26:41;9.40;;;2.25;;
32250;SDS011;41295;48.518;9.206;2022-10-17T12:28:46;7.22;;;2.33;;
32250;SDS011;41295;48.518;9.206;2022-10-17T12:30:52;4.55;;;2.08;;
32250;SDS011;41295;48.518;9.206;2022-10-17T12:32:58;12.55;;;2.05;;
32250;SDS011;41295;48.518;9.206;2022-10-17T12:35:12;8.30;;;2.80;;
32250;SDS011;41295;48.518;9.206;2022-10-17T12:40:01;4.50;;;1.65;;
32250;SDS011;41295;48.518;9.206;2022-10-17T12:42:19;8.27;;;2.10;;
32250;SDS011;41295;48.518;9.206;2022-10-17T12:44:34;9.10;;;1.98;;
32250;SDS011;41295;48.518;9.206;2022-10-17T12:48:59;7.90;;;1.80;;
32250;SDS011;41295;48.518;9.206;2022-10-17T12:51:05;6.43;;;2.17;;
32250;SDS011;41295;48.518;9.206;2022-10-17T12:53:32;4.03;;;1.80;;
32250;SDS011;41295;48.518;9.206;2022-10-17T12:55:42;6.32;;;1.63;;
32250;SDS011;41295;48.518;9.206;2022-10-17T12:57:51;3.63;;;1.35;;